Time;durP1;ratioP1;P1;durP2;ratioP2;P2;SDS_P1;SDS_P2;PMS_P1;PMS_P2;Temp;Humidity;BMP_temperature;BMP_pressure;BME280_temperature;BME280_humidity;BME280_pressure;Samples;Min_cycle;Max_cycle;Signal;HPM_P1;HPM_P2
2023/01/26 00:01:11;;;;;;;21.00;8.87;;;-0.50;99.90;;;;;;5041749;28;20542;-55
2023/01/26 00:03:37;;;;;;;19.83;9.17;;;-0.40;99.90;;;;;;5039746;28;20426;-55
2023/01/26 00:06:08;;;;;;;18.93;8.73;;;-0.40;99.90;;;;;;5046771;28;20427;-54
2023/01/26 00:08:42;;;;;;;17.83;7.70;;;-0.40;99.90;;;;;;5049054;28;20425;-55
2023/01/26 00:11:09;;;;;;;18.70;9.37;;;-0.40;99.90;;;;;;5046369;28;20516;-54
2023/01/26 00:13:35;;;;;;;14.63;7.30;;;-0.40;99.90;;;;;;5046055;28;20442;-54
2023/01/26 00:16:02;;;;;;;16.30;7.80;;;-0.40;99.90;;;;;;5046804;28;20463;-55
2023/01/26 00:18:29;;;;;;;13.33;7.20;;;-0.40;99.90;;;;;;5052098;28;20485;-56
2023/01/26 00:20:59;;;;;;;13.77;7.10;;;-0.40;99.90;;;;;;5061587;28;20514;-58
2023/01/26 00:23:27;;;;;;;17.47;7.97;;;-0.40;99.90;;;;;;5064743;28;20574;-57
2023/01/26 00:25:53;;;;;;;14.90;7.57;;;-0.40;99.90;;;;;;5069171;28;20436;-57
2023/01/26 00:28:18;;;;;;;16.93;7.83;;;-0.40;99.90;;;;;;5067518;28;20538;-53
2023/01/26 00:30:44;;;;;;;15.50;9.00;;;-0.40;99.90;;;;;;5043196;28;20818;-57
2023/01/26 00:33:10;;;;;;;17.87;8.10;;;-0.40;99.90;;;;;;5046138;28;20814;-56
2023/01/26 00:35:35;;;;;;;18.57;10.07;;;-0.40;99.90;;;;;;5044520;28;20700;-55
2023/01/26 00:38:01;;;;;;;19.77;8.77;;;-0.40;99.90;;;;;;5046286;28;20181;-55
2023/01/26 00:40:26;;;;;;;19.10;9.40;;;-0.40;99.90;;;;;;5045216;28;20681;-56
2023/01/26 00:42:53;;;;;;;20.27;9.30;;;-0.40;99.90;;;;;;5042907;28;20805;-57
2023/01/26 00:45:20;;;;;;;22.43;10.10;;;-0.40;99.90;;;;;;5040598;28;20211;-55
2023/01/26 00:47:45;;;;;;;20.30;9.77;;;-0.40;99.90;;;;;;5047153;28;20432;-56
2023/01/26 00:50:11;;;;;;;19.63;9.10;;;-0.40;99.90;;;;;;5047511;28;20455;-56
2023/01/26 00:52:37;;;;;;;15.30;8.93;;;-0.40;99.90;;;;;;5044660;28;20191;-56
2023/01/26 00:55:03;;;;;;;20.30;8.60;;;-0.40;99.90;;;;;;5044607;28;20876;-56
2023/01/26 00:57:28;;;;;;;17.27;8.90;;;-0.40;99.90;;;;;;5047841;28;20691;-56
2023/01/26 00:59:54;;;;;;;20.13;10.00;;;-0.40;99.90;;;;;;5046550;28;20201;-56
2023/01/26 01:02:19;;;;;;;17.20;9.20;;;-0.40;99.90;;;;;;5044677;28;20594;-56
2023/01/26 01:04:45;;;;;;;16.87;8.73;;;-0.40;99.90;;;;;;5045034;28;20208;-57
2023/01/26 01:07:11;;;;;;;15.17;8.07;;;-0.40;99.90;;;;;;5048207;28;20230;-55
2023/01/26 01:09:36;;;;;;;14.57;7.60;;;-0.40;99.90;;;;;;5040711;28;20184;-54
2023/01/26 01:12:02;;;;;;;15.43;7.53;;;-0.40;99.90;;;;;;5044306;28;20553;-54
2023/01/26 01:14:27;;;;;;;16.93;8.40;;;-0.40;99.90;;;;;;5044787;28;20201;-56
2023/01/26 01:16:53;;;;;;;21.77;8.80;;;-0.40;99.90;;;;;;5043379;28;20594;-56
2023/01/26 01:19:19;;;;;;;16.40;8.90;;;-0.40;99.90;;;;;;5048421;28;20159;-55
2023/01/26 01:21:44;;;;;;;17.57;8.73;;;-0.40;99.90;;;;;;5046196;28;20735;-55
2023/01/26 01:24:11;;;;;;;11.40;6.77;;;-0.50;99.90;;;;;;5046043;28;20181;-56
2023/01/26 01:26:37;;;;;;;16.60;8.20;;;-0.40;99.90;;;;;;5045170;28;20177;-55
2023/01/26 01:29:03;;;;;;;15.93;7.40;;;-0.50;99.90;;;;;;5037599;28;21057;-55
2023/01/26 01:31:29;;;;;;;23.70;9.30;;;-0.50;99.90;;;;;;5042332;28;21235;-56
2023/01/26 01:33:55;;;;;;;18.57;9.23;;;-0.50;99.90;;;;;;5043394;28;20506;-55
2023/01/26 01:36:21;;;;;;;21.77;9.97;;;-0.50;99.90;;;;;;5038495;28;20208;-55
2023/01/26 01:38:47;;;;;;;20.20;9.27;;;-0.50;99.90;;;;;;5047245;28;20430;-54
2023/01/26 01:41:14;;;;;;;15.57;8.50;;;-0.50;99.90;;;;;;5044018;28;20468;-56
2023/01/26 01:43:40;;;;;;;18.40;9.50;;;-0.50;99.90;;;;;;5035798;28;20428;-55
2023/01/26 01:46:31;;;;;;;23.33;10.30;;;-0.50;99.90;;;;;;5041845;28;20443;-56
2023/01/26 01:49:03;;;;;;;17.10;8.20;;;-0.50;99.90;;;;;;5043905;28;20434;-59
2023/01/26 01:51:37;;;;;;;18.10;9.50;;;-0.50;99.90;;;;;;5068642;28;20438;-59
2023/01/26 01:54:11;;;;;;;19.67;8.70;;;-0.50;99.90;;;;;;5047239;28;20456;-54
2023/01/26 01:56:41;;;;;;;19.70;9.60;;;-0.50;99.90;;;;;;5040652;28;21011;-56
2023/01/26 01:59:08;;;;;;;19.57;8.63;;;-0.50;99.90;;;;;;5055416;28;20416;-56
2023/01/26 02:01:34;;;;;;;15.57;8.80;;;-0.50;99.90;;;;;;5051762;28;20447;-56
2023/01/26 02:04:03;;;;;;;18.10;9.07;;;-0.50;99.90;;;;;;5063517;28;20417;-58
2023/01/26 02:06:50;;;;;;;17.57;8.97;;;-0.50;99.90;;;;;;5057536;28;20193;-55
2023/01/26 02:12:09;;;;;;;21.80;9.63;;;-0.40;99.90;;;;;;5041258;28;20577;-56
2023/01/26 02:14:35;;;;;;;20.83;8.93;;;-0.40;99.90;;;;;;5021771;28;21714;-56
2023/01/26 02:17:00;;;;;;;19.43;8.90;;;-0.40;99.90;;;;;;5036939;28;20447;-55
2023/01/26 02:19:52;;;;;;;17.50;8.03;;;-0.40;99.90;;;;;;5043655;28;20257;-56
2023/01/26 02:22:49;;;;;;;12.93;7.50;;;-0.40;99.90;;;;;;5024292;28;20197;-55
2023/01/26 02:25:46;;;;;;;17.87;8.63;;;-0.40;99.90;;;;;;5041915;28;20487;-57
2023/01/26 02:28:11;;;;;;;18.47;9.20;;;-0.40;99.90;;;;;;5038440;28;20447;-56
2023/01/26 02:30:37;;;;;;;18.57;8.83;;;-0.40;99.90;;;;;;5041909;28;20978;-55
2023/01/26 02:33:03;;;;;;;17.23;9.17;;;-0.40;99.90;;;;;;5041229;28;20193;-55
2023/01/26 02:35:28;;;;;;;22.87;9.13;;;-0.40;99.90;;;;;;5039792;28;20475;-55
2023/01/26 02:37:54;;;;;;;17.20;8.57;;;-0.40;99.90;;;;;;5027488;28;20295;-57
2023/01/26 02:40:49;;;;;;;19.87;9.10;;;-0.40;99.90;;;;;;5044919;28;20243;-53
2023/01/26 02:43:15;;;;;;;18.53;9.47;;;-0.40;99.90;;;;;;5027494;28;20196;-55
2023/01/26 02:45:40;;;;;;;18.33;8.73;;;-0.40;99.90;;;;;;5044382;28;20535;-56
2023/01/26 02:48:07;;;;;;;16.13;8.60;;;-0.40;99.90;;;;;;5047276;28;20614;-56
2023/01/26 02:50:33;;;;;;;18.33;8.20;;;-0.40;99.90;;;;;;5063397;28;20482;-59
2023/01/26 02:52:59;;;;;;;20.50;9.27;;;-0.40;99.90;;;;;;5073323;28;20439;-59
2023/01/26 02:55:26;;;;;;;20.80;9.00;;;-0.40;99.90;;;;;;5066956;28;20521;-59
2023/01/26 02:57:54;;;;;;;17.33;8.67;;;-0.40;99.90;;;;;;5069639;28;20732;-58
2023/01/26 03:00:23;;;;;;;14.67;8.70;;;-0.40;99.90;;;;;;5072235;28;20444;-58
2023/01/26 03:02:51;;;;;;;21.40;8.30;;;-0.40;99.90;;;;;;5070324;28;20431;-56
2023/01/26 03:05:17;;;;;;;14.77;7.83;;;-0.40;99.90;;;;;;5067796;28;20496;-56
2023/01/26 03:07:42;;;;;;;16.23;7.90;;;-0.50;99.90;;;;;;5056556;28;20475;-56
2023/01/26 03:10:09;;;;;;;16.10;8.27;;;-0.50;99.90;;;;;;5052351;28;20206;-58
2023/01/26 03:12:35;;;;;;;14.90;7.27;;;-0.50;99.90;;;;;;5050069;28;20401;-56
2023/01/26 03:17:44;;;;;;;13.43;7.50;;;-0.50;99.90;;;;;;5047019;28;20187;-56
2023/01/26 03:28:24;;;;;;;13.37;7.30;;;-0.60;99.90;;;;;;5035244;28;20459;-56
2023/01/26 03:30:52;;;;;;;16.50;7.90;;;-0.60;99.90;;;;;;5044669;28;20461;-56
2023/01/26 03:33:18;;;;;;;15.40;6.80;;;-0.60;99.90;;;;;;5050110;28;20425;-57
2023/01/26 03:35:45;;;;;;;13.80;7.27;;;-0.60;99.90;;;;;;5047924;28;20456;-57
2023/01/26 03:38:11;;;;;;;11.63;7.07;;;-0.60;99.90;;;;;;5051403;28;20565;-58
2023/01/26 03:57:05;;;;;;;15.60;7.30;;;-0.70;99.90;;;;;;5046481;28;20446;-57
2023/01/26 03:59:39;;;;;;;15.80;8.10;;;-0.70;99.90;;;;;;5045718;28;20472;-58
2023/01/26 04:10:24;;;;;;;15.67;7.50;;;-0.60;99.90;;;;;;5040008;28;20511;-56
2023/01/26 04:21:25;;;;;;;12.57;6.83;;;-0.70;99.90;;;;;;5052307;28;20459;-58
2023/01/26 04:23:56;;;;;;;12.17;6.77;;;-0.70;99.90;;;;;;5069564;28;20446;-54
2023/01/26 04:26:22;;;;;;;13.87;7.77;;;-0.70;99.90;;;;;;5037224;28;20450;-58
2023/01/26 04:28:48;;;;;;;14.40;7.47;;;-0.70;99.90;;;;;;5042960;28;20508;-56
2023/01/26 04:31:15;;;;;;;14.30;7.30;;;-0.70;99.90;;;;;;5044000;28;20526;-56
2023/01/26 04:33:41;;;;;;;14.87;7.40;;;-0.70;99.90;;;;;;5039980;28;20512;-56
2023/01/26 04:36:08;;;;;;;19.67;8.20;;;-0.70;99.90;;;;;;5046149;28;20875;-56
2023/01/26 04:38:34;;;;;;;17.43;8.60;;;-0.70;99.90;;;;;;5045579;28;20431;-56
2023/01/26 04:41:00;;;;;;;17.57;8.80;;;-0.70;99.90;;;;;;5041361;28;20515;-57
2023/01/26 04:43:25;;;;;;;17.13;8.20;;;-0.70;99.90;;;;;;5043660;28;20285;-56
2023/01/26 04:45:58;;;;;;;16.90;7.90;;;-0.70;99.90;;;;;;5037761;28;20232;-57
2023/01/26 04:48:24;;;;;;;18.40;8.37;;;-0.70;99.90;;;;;;5049006;28;20188;-58
2023/01/26 04:50:58;;;;;;;20.47;10.23;;;-0.70;99.90;;;;;;5041922;28;20466;-58
2023/01/26 04:53:24;;;;;;;15.43;7.93;;;-0.70;99.90;;;;;;5044346;28;20450;-58
2023/01/26 04:55:50;;;;;;;13.40;7.00;;;-0.70;99.90;;;;;;5064738;28;20783;-60
2023/01/26 04:58:16;;;;;;;16.87;8.20;;;-0.70;99.90;;;;;;5044084;28;20498;-55
2023/01/26 05:00:42;;;;;;;16.80;8.40;;;-0.70;99.90;;;;;;5037898;28;20494;-56
2023/01/26 05:03:08;;;;;;;17.33;8.93;;;-0.60;99.90;;;;;;5034415;28;20475;-57
2023/01/26 05:05:37;;;;;;;15.60;7.93;;;-0.60;99.90;;;;;;5035654;28;20179;-55
2023/01/26 05:08:05;;;;;;;16.93;8.00;;;-0.60;99.90;;;;;;5041477;28;20183;-56
2023/01/26 05:10:30;;;;;;;17.17;8.50;;;-0.50;99.90;;;;;;5044467;28;20444;-54
2023/01/26 05:12:56;;;;;;;20.80;8.87;;;-0.50;99.90;;;;;;5045206;28;20427;-53
2023/01/26 05:15:22;;;;;;;20.60;9.67;;;-0.50;99.90;;;;;;5040965;28;20578;-53
2023/01/26 05:17:47;;;;;;;21.60;9.80;;;-0.60;99.90;;;;;;5036096;28;20331;-54
2023/01/26 05:20:13;;;;;;;19.40;9.63;;;-0.50;99.90;;;;;;5044552;28;20572;-55
2023/01/26 05:22:39;;;;;;;22.53;9.80;;;-0.50;99.90;;;;;;5043125;28;20181;-52
2023/01/26 05:25:05;;;;;;;21.80;10.47;;;-0.50;99.90;;;;;;5038128;28;20675;-54
2023/01/26 05:27:30;;;;;;;21.33;9.43;;;-0.60;99.90;;;;;;5041118;28;20436;-52
2023/01/26 05:29:59;;;;;;;23.00;9.50;;;-0.60;99.90;;;;;;5041474;28;20646;-54
2023/01/26 05:32:29;;;;;;;20.90;10.30;;;-0.60;99.90;;;;;;5039388;28;20268;-53
2023/01/26 05:34:55;;;;;;;21.73;9.80;;;-0.60;99.90;;;;;;5041075;28;20463;-52
2023/01/26 05:37:22;;;;;;;22.77;9.73;;;-0.60;99.90;;;;;;5015816;28;20484;-52
2023/01/26 05:39:48;;;;;;;21.90;9.87;;;-0.60;99.90;;;;;;5044835;28;20174;-58
2023/01/26 05:42:13;;;;;;;23.70;10.90;;;-0.60;99.90;;;;;;5065482;28;20432;-57
2023/01/26 05:44:39;;;;;;;20.70;10.43;;;-0.60;99.90;;;;;;5063698;28;20178;-57
2023/01/26 05:47:05;;;;;;;23.80;10.60;;;-0.60;99.90;;;;;;5061096;28;20185;-55
2023/01/26 05:49:31;;;;;;;19.37;9.10;;;-0.60;99.90;;;;;;5035111;28;20295;-58
2023/01/26 05:51:57;;;;;;;23.20;10.03;;;-0.60;99.90;;;;;;5031755;28;20189;-55
2023/01/26 05:54:23;;;;;;;20.60;9.57;;;-0.60;99.90;;;;;;5034626;28;20436;-56
2023/01/26 05:56:49;;;;;;;21.97;9.53;;;-0.60;99.90;;;;;;5042271;28;20479;-54
2023/01/26 05:59:15;;;;;;;19.00;9.67;;;-0.70;99.90;;;;;;5045216;28;20432;-54
2023/01/26 06:01:40;;;;;;;22.27;9.27;;;-0.70;99.90;;;;;;5042502;28;20498;-55
2023/01/26 06:04:06;;;;;;;21.50;9.90;;;-0.70;99.90;;;;;;5044167;28;20205;-54
2023/01/26 06:06:32;;;;;;;18.40;10.20;;;-0.70;99.90;;;;;;5039133;28;20185;-54
2023/01/26 06:08:58;;;;;;;20.13;9.67;;;-0.60;99.90;;;;;;5047494;28;20189;-54
2023/01/26 06:11:24;;;;;;;22.33;9.97;;;-0.60;99.90;;;;;;5058567;28;20258;-57
2023/01/26 06:13:49;;;;;;;21.50;10.07;;;-0.60;99.90;;;;;;5068026;28;20491;-58
2023/01/26 06:16:15;;;;;;;20.17;9.67;;;-0.60;99.90;;;;;;5063869;28;20225;-56
2023/01/26 06:18:41;;;;;;;19.90;9.60;;;-0.60;99.90;;;;;;5068621;28;20192;-59
2023/01/26 06:21:06;;;;;;;22.50;10.27;;;-0.60;99.90;;;;;;5063434;28;20198;-53
2023/01/26 06:23:32;;;;;;;20.23;9.90;;;-0.60;99.90;;;;;;5022817;28;20976;-55
2023/01/26 06:25:59;;;;;;;16.83;8.80;;;-0.60;99.90;;;;;;5043711;28;20422;-60
2023/01/26 06:28:25;;;;;;;21.13;9.93;;;-0.60;99.90;;;;;;5044610;28;20216;-54
2023/01/26 06:30:50;;;;;;;22.67;9.70;;;-0.60;99.90;;;;;;5054692;28;20416;-58
2023/01/26 06:33:16;;;;;;;20.00;9.77;;;-0.60;99.90;;;;;;5054800;28;20185;-56
2023/01/26 06:35:41;;;;;;;19.97;9.80;;;-0.60;99.90;;;;;;5040337;28;20209;-59
2023/01/26 06:38:07;;;;;;;20.53;8.80;;;-0.60;99.90;;;;;;5063226;28;20225;-55
2023/01/26 06:40:33;;;;;;;20.30;10.03;;;-0.60;99.90;;;;;;5036454;28;20224;-54
2023/01/26 06:42:58;;;;;;;20.40;9.30;;;-0.60;99.90;;;;;;5038282;28;20188;-56
2023/01/26 06:45:24;;;;;;;19.43;9.20;;;-0.70;99.90;;;;;;5036293;28;20182;-57
2023/01/26 06:47:50;;;;;;;19.23;8.80;;;-0.60;99.90;;;;;;5039236;28;20199;-55
2023/01/26 06:50:19;;;;;;;20.07;10.33;;;-0.70;99.90;;;;;;5035136;28;20200;-53
2023/01/26 06:52:53;;;;;;;18.30;10.00;;;-0.60;99.90;;;;;;5038416;28;20501;-54
2023/01/26 06:55:35;;;;;;;17.07;9.10;;;-0.60;99.90;;;;;;5035829;28;21187;-54
2023/01/26 06:58:00;;;;;;;22.60;9.00;;;-0.60;99.90;;;;;;5036839;28;20637;-53
2023/01/26 07:00:26;;;;;;;19.10;8.60;;;-0.60;99.90;;;;;;5037787;28;20952;-56
2023/01/26 07:02:51;;;;;;;20.97;9.40;;;-0.60;99.90;;;;;;5034727;28;20190;-57
2023/01/26 07:05:17;;;;;;;23.03;10.10;;;-0.60;99.90;;;;;;5037346;28;20189;-56
2023/01/26 07:07:43;;;;;;;20.60;9.93;;;-0.60;99.90;;;;;;5039538;28;20269;-55
2023/01/26 07:10:09;;;;;;;19.10;9.90;;;-0.60;99.90;;;;;;5037633;28;20574;-54
2023/01/26 07:12:43;;;;;;;19.00;9.17;;;-0.60;99.90;;;;;;5046857;28;20177;-55
2023/01/26 07:15:10;;;;;;;18.53;8.57;;;-0.60;99.90;;;;;;5027971;28;20602;-55
2023/01/26 07:17:39;;;;;;;18.67;9.67;;;-0.60;99.90;;;;;;5051647;28;20439;-56
2023/01/26 07:20:05;;;;;;;20.30;10.20;;;-0.60;99.90;;;;;;5045365;28;20454;-54
2023/01/26 07:22:31;;;;;;;18.40;9.00;;;-0.60;99.90;;;;;;5044281;28;20959;-54
2023/01/26 07:24:56;;;;;;;20.33;8.83;;;-0.60;99.90;;;;;;5039954;28;20432;-53
2023/01/26 07:27:22;;;;;;;16.40;8.13;;;-0.60;99.90;;;;;;5049460;28;20186;-56
2023/01/26 07:29:48;;;;;;;21.30;8.63;;;-0.60;99.90;;;;;;5050621;28;20175;-53
2023/01/26 07:32:14;;;;;;;19.93;9.40;;;-0.60;99.90;;;;;;5051206;28;20651;-56
2023/01/26 07:34:40;;;;;;;22.97;9.17;;;-0.60;99.90;;;;;;5046602;28;20439;-55
2023/01/26 07:37:05;;;;;;;20.80;10.33;;;-0.60;99.90;;;;;;5049164;28;20191;-54
2023/01/26 07:39:31;;;;;;;20.63;10.00;;;-0.60;99.90;;;;;;5039640;28;20185;-55
2023/01/26 07:41:57;;;;;;;18.10;10.07;;;-0.60;99.90;;;;;;5038885;28;20214;-56
2023/01/26 07:44:22;;;;;;;15.93;8.47;;;-0.60;99.90;;;;;;5047431;28;20288;-55
2023/01/26 07:46:48;;;;;;;17.70;8.60;;;-0.60;99.90;;;;;;5050049;28;20525;-55
2023/01/26 07:49:13;;;;;;;15.40;7.77;;;-0.60;99.90;;;;;;5049009;28;20193;-54
2023/01/26 07:51:39;;;;;;;23.30;9.33;;;-0.60;99.90;;;;;;5046763;28;20208;-57
2023/01/26 07:54:05;;;;;;;21.53;9.60;;;-0.60;99.90;;;;;;5044584;28;20197;-56
2023/01/26 07:56:31;;;;;;;17.83;8.93;;;-0.60;99.90;;;;;;5047312;28;21004;-55
2023/01/26 07:58:57;;;;;;;18.43;8.03;;;-0.60;99.90;;;;;;5037944;28;20264;-55
2023/01/26 08:01:23;;;;;;;21.20;9.50;;;-0.60;99.90;;;;;;5048826;28;20486;-54
2023/01/26 08:03:50;;;;;;;19.07;10.23;;;-0.50;99.90;;;;;;5057819;28;20196;-54
2023/01/26 08:06:17;;;;;;;20.63;9.53;;;-0.50;99.90;;;;;;5052306;28;20422;-55
2023/01/26 08:08:44;;;;;;;19.50;8.93;;;-0.50;99.90;;;;;;5041134;28;20538;-54
2023/01/26 08:11:11;;;;;;;18.20;8.97;;;-0.50;99.90;;;;;;5045596;28;20454;-55
2023/01/26 08:13:36;;;;;;;20.23;9.20;;;-0.50;99.90;;;;;;5049217;28;20539;-54
2023/01/26 08:16:05;;;;;;;19.67;7.90;;;-0.50;99.90;;;;;;5050202;28;20502;-57
2023/01/26 08:18:31;;;;;;;17.57;8.10;;;-0.50;99.90;;;;;;5068016;28;20169;-57
2023/01/26 08:20:57;;;;;;;15.57;8.07;;;-0.50;99.90;;;;;;5053378;28;20466;-59
2023/01/26 08:23:23;;;;;;;19.63;9.20;;;-0.50;99.90;;;;;;5073103;28;20498;-59
2023/01/26 08:25:48;;;;;;;21.60;9.87;;;-0.50;99.90;;;;;;5048824;28;20455;-55
2023/01/26 08:28:14;;;;;;;23.33;8.67;;;-0.50;99.90;;;;;;5049009;28;20532;-55
2023/01/26 08:30:40;;;;;;;16.60;8.50;;;-0.50;99.90;;;;;;5048660;28;20197;-54
2023/01/26 08:33:06;;;;;;;18.50;8.80;;;-0.50;99.90;;;;;;5047741;28;20666;-55
2023/01/26 08:35:32;;;;;;;17.57;7.93;;;-0.50;99.90;;;;;;5035601;28;20968;-55
2023/01/26 08:37:58;;;;;;;20.90;8.30;;;-0.50;99.90;;;;;;5046997;28;20431;-55
2023/01/26 08:40:24;;;;;;;20.83;8.83;;;-0.50;99.90;;;;;;5051852;28;20565;-54
2023/01/26 08:42:53;;;;;;;16.37;8.47;;;-0.50;99.90;;;;;;5050705;28;20443;-53
2023/01/26 08:45:19;;;;;;;19.23;9.10;;;-0.50;99.90;;;;;;5044704;28;20435;-53
2023/01/26 08:47:49;;;;;;;21.57;10.10;;;-0.50;99.90;;;;;;5045959;28;20431;-56
2023/01/26 08:50:15;;;;;;;23.47;10.00;;;-0.40;99.90;;;;;;5069415;28;20205;-55
2023/01/26 08:52:41;;;;;;;19.20;9.33;;;-0.40;99.90;;;;;;5046671;28;20492;-56
2023/01/26 08:55:07;;;;;;;17.67;8.80;;;-0.40;99.90;;;;;;5056669;28;20185;-60
2023/01/26 08:57:32;;;;;;;27.23;8.63;;;-0.40;99.90;;;;;;5057329;28;20204;-56
2023/01/26 08:59:58;;;;;;;20.90;8.00;;;-0.50;99.90;;;;;;5049489;28;20436;-58
2023/01/26 09:02:23;;;;;;;18.73;7.50;;;-0.50;99.90;;;;;;5067792;28;20260;-56
2023/01/26 09:04:49;;;;;;;16.90;8.30;;;-0.50;99.90;;;;;;5073455;28;20173;-57
2023/01/26 09:07:15;;;;;;;19.27;9.20;;;-0.50;99.90;;;;;;5064727;28;20182;-61
2023/01/26 09:09:40;;;;;;;21.37;9.03;;;-0.50;99.90;;;;;;5051621;28;20181;-55
2023/01/26 09:12:06;;;;;;;20.83;9.53;;;-0.50;99.90;;;;;;5042264;28;20209;-53
2023/01/26 09:14:31;;;;;;;18.57;9.00;;;-0.60;99.90;;;;;;5044493;28;20224;-54
2023/01/26 09:16:57;;;;;;;14.73;8.30;;;-0.60;99.90;;;;;;5045612;28;20622;-55
2023/01/26 09:19:23;;;;;;;19.57;8.67;;;-0.50;99.90;;;;;;5047701;28;20273;-55
2023/01/26 09:21:53;;;;;;;15.40;8.07;;;-0.50;99.90;;;;;;5046925;28;20213;-53
2023/01/26 09:24:22;;;;;;;17.87;8.67;;;-0.50;99.90;;;;;;5038674;28;20186;-53
2023/01/26 09:26:47;;;;;;;17.20;8.17;;;-0.40;99.90;;;;;;5047525;28;20454;-54
2023/01/26 09:29:14;;;;;;;20.03;8.13;;;-0.40;99.90;;;;;;5046319;28;20958;-55
2023/01/26 09:31:40;;;;;;;29.47;9.90;;;-0.40;99.90;;;;;;5031446;28;20233;-54
2023/01/26 09:34:05;;;;;;;17.73;9.57;;;-0.40;99.90;;;;;;5038790;28;20459;-54
2023/01/26 09:36:32;;;;;;;15.80;7.80;;;-0.40;99.90;;;;;;5051243;28;20189;-57
2023/01/26 09:38:58;;;;;;;14.63;8.67;;;-0.30;99.90;;;;;;5046785;28;20644;-56
2023/01/26 09:41:35;;;;;;;13.80;7.60;;;-0.30;99.90;;;;;;5041916;28;20461;-56
2023/01/26 09:44:19;;;;;;;15.93;7.13;;;-0.30;99.90;;;;;;5045578;28;20429;-54
2023/01/26 09:46:54;;;;;;;13.40;7.10;;;-0.20;99.90;;;;;;5046521;28;20558;-54
2023/01/26 09:49:38;;;;;;;14.57;7.00;;;-0.20;99.90;;;;;;5028828;28;20428;-55
2023/01/26 09:52:10;;;;;;;14.57;7.00;;;-0.20;99.90;;;;;;5041301;28;20472;-55
2023/01/26 09:54:43;;;;;;;12.53;6.57;;;-0.20;99.90;;;;;;5036259;28;20420;-52
2023/01/26 09:57:15;;;;;;;13.13;6.30;;;-0.20;99.90;;;;;;5047356;28;21013;-55
2023/01/26 09:59:59;;;;;;;17.57;7.10;;;-0.20;99.90;;;;;;5044846;28;20450;-53
2023/01/26 10:02:41;;;;;;;16.63;8.73;;;-0.20;99.90;;;;;;5043478;28;20465;-55
2023/01/26 10:05:27;;;;;;;17.37;7.80;;;-0.20;99.90;;;;;;5044939;28;20447;-56
2023/01/26 10:07:53;;;;;;;11.00;6.50;;;-0.20;99.90;;;;;;5043647;28;20534;-55
2023/01/26 10:10:30;;;;;;;10.00;5.70;;;-0.10;99.90;;;;;;5036128;28;20555;-55
2023/01/26 10:12:57;;;;;;;18.13;7.40;;;-0.10;99.90;;;;;;5027873;28;20301;-54
2023/01/26 10:15:39;;;;;;;18.33;8.53;;;-0.20;99.90;;;;;;5035269;28;20602;-54
2023/01/26 10:18:22;;;;;;;15.83;6.63;;;-0.10;99.90;;;;;;5041260;28;21083;-53
2023/01/26 10:20:53;;;;;;;16.53;7.10;;;-0.10;99.90;;;;;;5046572;28;20938;-53
2023/01/26 10:23:21;;;;;;;12.60;6.63;;;-0.10;99.90;;;;;;5051839;28;20431;-57
2023/01/26 10:25:47;;;;;;;16.60;7.97;;;-0.10;99.90;;;;;;5045855;28;20457;-53
2023/01/26 10:28:33;;;;;;;15.10;7.40;;;-0.10;99.90;;;;;;5037064;28;20485;-54
2023/01/26 10:31:01;;;;;;;15.07;7.83;;;-0.10;99.90;;;;;;5038725;28;20621;-55
2023/01/26 10:33:35;;;;;;;13.53;5.90;;;-0.10;99.90;;;;;;5041537;28;20439;-56
2023/01/26 10:36:02;;;;;;;17.70;7.43;;;-0.10;99.90;;;;;;5039149;28;20457;-54
2023/01/26 10:38:36;;;;;;;13.63;6.77;;;-0.10;99.90;;;;;;5041440;28;20519;-55
2023/01/26 10:41:17;;;;;;;12.80;6.47;;;-0.10;99.90;;;;;;5027424;28;20474;-55
2023/01/26 10:44:14;;;;;;;10.93;6.70;;;-0.10;99.90;;;;;;5041055;28;20432;-55
2023/01/26 10:46:41;;;;;;;13.73;6.47;;;-0.10;99.90;;;;;;5027152;28;20570;-55
2023/01/26 10:49:07;;;;;;;14.70;7.00;;;-0.10;99.90;;;;;;5039024;28;20431;-56
2023/01/26 10:51:35;;;;;;;15.63;7.60;;;-0.10;99.90;;;;;;5045036;28;20447;-54
2023/01/26 10:54:18;;;;;;;13.67;7.50;;;-0.10;99.90;;;;;;5041091;28;20162;-55
2023/01/26 10:56:49;;;;;;;16.30;8.77;;;0.00;99.90;;;;;;5047863;28;20459;-56
2023/01/26 10:59:36;;;;;;;19.57;8.23;;;0.00;99.90;;;;;;5046616;28;20460;-55
2023/01/26 11:02:17;;;;;;;14.83;6.77;;;0.00;99.90;;;;;;5044132;28;20445;-55
2023/01/26 11:05:22;;;;;;;8.90;5.40;;;0.10;99.90;;;;;;5048608;28;20455;-55
2023/01/26 11:07:57;;;;;;;12.93;7.10;;;0.00;99.90;;;;;;5063397;28;20576;-57
2023/01/26 11:10:33;;;;;;;16.10;8.00;;;0.10;99.90;;;;;;5071014;28;20450;-58
2023/01/26 11:13:06;;;;;;;10.20;5.77;;;0.10;99.90;;;;;;5065085;28;20921;-57
2023/01/26 11:15:37;;;;;;;10.13;6.27;;;0.10;99.90;;;;;;5073938;28;20451;-64
2023/01/26 11:18:08;;;;;;;8.23;4.53;;;0.20;99.90;;;;;;5061066;28;20408;-56
2023/01/26 11:20:46;;;;;;;10.47;5.37;;;0.20;99.90;;;;;;5061685;28;20477;-56
2023/01/26 11:23:25;;;;;;;7.67;4.97;;;0.20;99.90;;;;;;5059090;28;20495;-56
2023/01/26 11:26:09;;;;;;;12.43;6.30;;;0.20;99.90;;;;;;5042775;28;20422;-55
2023/01/26 11:28:54;;;;;;;6.20;4.43;;;0.20;99.90;;;;;;5052159;28;20726;-54
2023/01/26 11:31:37;;;;;;;8.83;5.00;;;0.20;99.90;;;;;;5044571;28;21039;-56
2023/01/26 11:34:14;;;;;;;15.07;8.70;;;0.20;99.90;;;;;;5044959;28;20442;-55
2023/01/26 11:37:01;;;;;;;10.30;5.00;;;0.20;99.90;;;;;;5032420;28;20546;-56
2023/01/26 11:39:33;;;;;;;6.77;4.43;;;0.20;99.90;;;;;;5048374;28;20934;-55
2023/01/26 11:42:20;;;;;;;8.00;4.60;;;0.20;99.90;;;;;;5047089;28;20524;-53
2023/01/26 11:44:51;;;;;;;8.90;5.40;;;0.20;99.90;;;;;;5047770;28;20431;-52
2023/01/26 11:47:38;;;;;;;9.47;4.97;;;0.20;99.90;;;;;;5050934;28;20463;-55
2023/01/26 11:50:15;;;;;;;10.93;5.00;;;0.30;99.90;;;;;;5038506;28;20438;-54
2023/01/26 11:52:57;;;;;;;12.30;5.80;;;0.30;99.90;;;;;;5044682;28;20733;-56
2023/01/26 11:55:41;;;;;;;10.30;5.63;;;0.30;99.90;;;;;;5039545;28;20454;-57
2023/01/26 11:58:24;;;;;;;6.50;4.50;;;0.30;99.90;;;;;;5049481;28;20429;-54
2023/01/26 12:00:57;;;;;;;8.80;5.27;;;0.30;99.90;;;;;;5045948;28;20454;-56
2023/01/26 12:03:34;;;;;;;6.90;4.50;;;0.30;99.90;;;;;;5046128;28;20494;-57
2023/01/26 12:06:13;;;;;;;8.20;4.90;;;0.30;99.90;;;;;;5043116;28;20431;-55
2023/01/26 12:08:42;;;;;;;6.63;4.40;;;0.20;99.90;;;;;;5041823;28;20799;-52
2023/01/26 12:11:22;;;;;;;7.80;5.43;;;0.30;99.90;;;;;;5038373;28;20455;-57
2023/01/26 12:14:28;;;;;;;11.73;5.73;;;0.30;99.90;;;;;;5029053;28;20436;-57
2023/01/26 12:17:26;;;;;;;7.50;5.40;;;0.30;99.90;;;;;;5040489;28;20464;-57
2023/01/26 12:20:04;;;;;;;8.23;5.00;;;0.30;99.90;;;;;;5041161;28;20454;-58
2023/01/26 12:22:35;;;;;;;8.87;5.10;;;0.30;99.90;;;;;;5032117;28;20479;-55
2023/01/26 12:25:32;;;;;;;7.37;5.40;;;0.20;99.90;;;;;;5042245;28;20429;-54
2023/01/26 12:28:13;;;;;;;10.03;6.40;;;0.30;99.90;;;;;;5042612;28;20425;-56
2023/01/26 12:30:56;;;;;;;9.83;5.80;;;0.30;99.90;;;;;;5040477;28;20470;-57
2023/01/26 12:33:22;;;;;;;12.80;5.70;;;0.30;99.90;;;;;;5040954;28;20433;-54
2023/01/26 12:35:51;;;;;;;7.97;4.40;;;0.30;99.90;;;;;;5037426;28;20591;-55
2023/01/26 12:38:51;;;;;;;8.13;5.23;;;0.40;99.90;;;;;;5041963;28;20428;-55
2023/01/26 12:41:22;;;;;;;7.50;4.70;;;0.30;99.90;;;;;;5050630;28;20477;-55
2023/01/26 12:43:54;;;;;;;13.37;4.60;;;0.30;99.90;;;;;;5040745;28;20518;-55
2023/01/26 12:46:22;;;;;;;8.20;5.10;;;0.30;99.90;;;;;;5039943;28;20469;-55
2023/01/26 12:48:50;;;;;;;9.37;5.07;;;0.20;99.90;;;;;;5040756;28;20540;-53
2023/01/26 12:51:29;;;;;;;8.73;5.87;;;0.20;99.90;;;;;;5040071;28;20462;-54
2023/01/26 12:54:07;;;;;;;9.93;5.17;;;0.20;99.90;;;;;;5043241;28;20852;-54
2023/01/26 12:56:44;;;;;;;9.37;4.80;;;0.20;99.90;;;;;;5040730;28;20972;-54
2023/01/26 12:59:33;;;;;;;9.40;5.77;;;0.20;99.90;;;;;;5041168;28;20474;-55
2023/01/26 13:02:08;;;;;;;7.53;5.30;;;0.20;99.90;;;;;;5023758;28;20448;-55
2023/01/26 13:04:34;;;;;;;11.07;6.07;;;0.30;99.90;;;;;;5023583;28;20427;-55
2023/01/26 13:07:23;;;;;;;9.27;5.93;;;0.20;99.90;;;;;;5034117;28;20518;-55
2023/01/26 13:10:25;;;;;;;10.67;5.80;;;0.30;99.90;;;;;;5041910;28;20502;-54
2023/01/26 13:13:20;;;;;;;11.57;5.93;;;0.30;99.90;;;;;;5025705;28;20447;-55
2023/01/26 13:15:48;;;;;;;10.20;5.57;;;0.30;99.90;;;;;;5045238;28;20574;-55
2023/01/26 13:18:17;;;;;;;10.87;6.20;;;0.30;99.90;;;;;;5036023;28;20468;-55
2023/01/26 13:20:47;;;;;;;11.63;6.47;;;0.40;99.90;;;;;;5028685;28;20449;-55
2023/01/26 13:23:38;;;;;;;8.80;5.53;;;0.40;99.90;;;;;;5030002;28;20436;-57
2023/01/26 13:26:32;;;;;;;14.00;5.90;;;0.40;99.90;;;;;;5043258;28;20630;-55
2023/01/26 13:29:35;;;;;;;9.50;5.43;;;0.40;99.90;;;;;;5058358;28;20428;-57
2023/01/26 13:32:12;;;;;;;11.07;5.27;;;0.40;99.90;;;;;;5040170;28;21002;-56
2023/01/26 13:34:43;;;;;;;9.20;4.90;;;0.40;99.90;;;;;;5059885;28;20420;-55
2023/01/26 13:37:31;;;;;;;8.40;4.90;;;0.40;99.90;;;;;;5058336;28;20479;-57
2023/01/26 13:40:13;;;;;;;7.80;4.70;;;0.30;99.90;;;;;;5031795;28;20622;-55
2023/01/26 13:43:11;;;;;;;8.70;5.03;;;0.30;99.90;;;;;;5064433;28;20459;-60